createdAt,value
2022-11-23T00:02:21.767Z,99722.25
2022-11-23T00:04:50.156Z,99729.94
2022-11-23T00:07:17.362Z,99721.84
2022-11-23T00:09:44.405Z,99719.78
2022-11-23T00:12:11.795Z,99727.91
2022-11-23T00:14:38.757Z,99717.97
2022-11-23T00:17:05.705Z,99722.84
2022-11-23T00:19:33.003Z,99725.88
2022-11-23T00:22:02.662Z,99713.31
2022-11-23T00:27:59.737Z,99720.19
2022-11-23T00:30:29.268Z,99710.06
2022-11-23T00:32:57.187Z,99718.38
2022-11-23T00:35:28.294Z,99715.75
2022-11-23T00:38:07.944Z,99709.28
2022-11-23T00:40:34.901Z,99713.13
2022-11-23T00:43:01.860Z,99716.56
2022-11-23T00:45:29.816Z,99717.56
2022-11-23T00:47:56.794Z,99717.59
2022-11-23T00:50:23.780Z,99713.94
2022-11-23T00:52:50.765Z,99712.94
2022-11-23T00:55:19.133Z,99712.53
2022-11-23T00:57:46.050Z,99712.72
2022-11-23T01:00:13.887Z,99717.97
2022-11-23T01:02:40.843Z,99721.03
2022-11-23T01:05:08.635Z,99715.94
2022-11-23T01:07:35.602Z,99719.63
2022-11-23T01:10:02.601Z,99718.19
2022-11-23T01:12:30.975Z,99723.66
2022-11-23T01:14:57.975Z,99720.22
2022-11-23T01:17:24.916Z,99730.75
2022-11-23T01:19:51.858Z,99723.47
2022-11-23T01:22:20.134Z,99724.25
2022-11-23T01:24:47.143Z,99716.78
2022-11-23T01:27:14.089Z,99719.00
2022-11-23T01:29:42.359Z,99721.63
2022-11-23T01:32:09.320Z,99717.78
2022-11-23T01:34:36.407Z,99712.53
2022-11-23T01:37:03.336Z,99710.91
2022-11-23T01:39:30.631Z,99707.66
2022-11-23T01:41:57.738Z,99720.22
2022-11-23T01:44:28.869Z,99714.94
2022-11-23T01:46:59.153Z,99719.81
2022-11-23T01:49:33.865Z,99729.13
2022-11-23T01:52:08.967Z,99720.22
2022-11-23T01:54:44.829Z,99729.53
2022-11-23T01:57:18.832Z,99724.28
2022-11-23T01:59:47.732Z,99728.50
2022-11-23T02:02:17.246Z,99722.66
2022-11-23T02:04:49.599Z,99724.28
2022-11-23T02:07:19.911Z,99724.69
2022-11-23T02:09:55.863Z,99715.56
2022-11-23T02:12:23.116Z,99716.56
2022-11-23T02:14:51.127Z,99716.16
2022-11-23T02:17:21.890Z,99713.72
2022-11-23T02:20:04.185Z,99709.28
2022-11-23T02:22:47.372Z,99712.31
2022-11-23T02:25:27.725Z,99711.31
2022-11-23T02:27:57.105Z,99716.56
2022-11-23T02:30:24.416Z,99713.50
2022-11-23T02:32:51.406Z,99702.56
2022-11-23T02:35:18.347Z,99701.56
2022-11-23T02:37:45.654Z,99706.44
2022-11-23T02:40:25.324Z,99711.25
2022-11-23T02:42:52.582Z,99712.91
2022-11-23T02:45:31.296Z,99721.41
2022-11-23T02:47:58.242Z,99711.88
2022-11-23T02:50:25.238Z,99718.97
2022-11-23T02:52:52.240Z,99711.47
2022-11-23T02:55:19.219Z,99714.09
2022-11-23T02:57:46.242Z,99705.97
2022-11-23T03:00:14.918Z,99713.09
2022-11-23T03:02:43.225Z,99708.03
2022-11-23T03:05:10.212Z,99713.72
2022-11-23T03:07:43.180Z,99716.13
2022-11-23T03:10:10.923Z,99718.38
2022-11-23T03:12:37.873Z,99712.47
2022-11-23T03:15:06.331Z,99711.50
2022-11-23T03:17:33.460Z,99718.97
2022-11-23T03:20:01.812Z,99720.59
2022-11-23T03:22:28.825Z,99726.69
2022-11-23T03:24:57.339Z,99720.19
2022-11-23T03:27:24.320Z,99722.59
2022-11-23T03:29:51.250Z,99728.28
2022-11-23T03:32:18.210Z,99716.94
2022-11-23T03:34:45.162Z,99723.84
2022-11-23T03:37:13.428Z,99724.84
2022-11-23T03:39:45.793Z,99728.28
2022-11-23T03:42:14.224Z,99730.94
2022-11-23T03:44:41.203Z,99729.50
2022-11-23T03:47:08.212Z,99721.38
2022-11-23T03:49:35.155Z,99719.34
2022-11-23T03:52:02.131Z,99732.91
2022-11-23T03:54:30.394Z,99734.75
2022-11-23T03:56:57.363Z,99733.72
2022-11-23T03:59:24.369Z,99736.38
2022-11-23T04:01:51.299Z,99728.28
2022-11-23T04:04:21.017Z,99736.00
2022-11-23T04:06:48.009Z,99734.97
2022-11-23T04:09:15.508Z,99733.97
2022-11-23T04:11:43.816Z,99733.97
2022-11-23T04:14:10.860Z,99719.34
2022-11-23T04:16:37.875Z,99725.81
2022-11-23T04:19:04.865Z,99730.28
2022-11-23T04:21:31.807Z,99723.16
2022-11-23T04:23:58.950Z,99731.09
2022-11-23T04:26:25.909Z,99729.47
2022-11-23T04:28:54.267Z,99725.03
2022-11-23T04:31:21.333Z,99721.31
2022-11-23T04:33:48.356Z,99722.13
2022-11-23T04:36:15.330Z,99722.13
2022-11-23T04:38:42.295Z,99717.66
2022-11-23T04:41:10.156Z,99719.66
2022-11-23T04:43:37.074Z,99722.94
2022-11-23T04:46:05.562Z,99728.19
2022-11-23T04:48:32.583Z,99731.84
2022-11-23T04:50:59.576Z,99730.63
2022-11-23T04:53:26.574Z,99726.97
2022-11-23T04:55:53.610Z,99730.66
2022-11-23T04:58:20.654Z,99724.94
2022-11-23T05:00:50.906Z,99729.00
2022-11-23T05:03:19.314Z,99729.41
2022-11-23T05:05:46.562Z,99731.00
2022-11-23T05:08:13.571Z,99733.63
2022-11-23T05:10:40.634Z,99733.22
2022-11-23T05:13:07.652Z,99731.00
2022-11-23T05:15:34.688Z,99735.88
2022-11-23T05:18:02.515Z,99735.03
2022-11-23T05:20:30.852Z,99728.56
2022-11-23T05:22:57.900Z,99732.84
2022-11-23T05:25:25.404Z,99738.09
2022-11-23T05:27:52.788Z,99741.09
2022-11-23T05:30:23.639Z,99737.84
2022-11-23T05:32:50.874Z,99739.28
2022-11-23T05:35:18.115Z,99745.59
2022-11-23T05:37:46.405Z,99740.09
2022-11-23T05:40:13.954Z,99742.09
2022-11-23T05:42:41.006Z,99748.38
2022-11-23T05:45:11.765Z,99751.84
2022-11-23T05:47:39.036Z,99753.25
2022-11-23T05:50:07.724Z,99752.84
2022-11-23T05:52:34.696Z,99761.34
2022-11-23T05:55:03.471Z,99757.72
2022-11-23T05:57:30.459Z,99751.41
2022-11-23T05:59:57.431Z,99753.03
2022-11-23T06:02:24.396Z,99759.31
2022-11-23T06:04:51.343Z,99755.47
2022-11-23T06:07:18.303Z,99765.44
2022-11-23T06:09:45.315Z,99768.31
2022-11-23T06:12:13.903Z,99771.34
2022-11-23T06:14:40.928Z,99771.94
2022-11-23T06:17:07.866Z,99767.03
2022-11-23T06:19:35.260Z,99777.78
2022-11-23T06:22:02.330Z,99771.09
2022-11-23T06:24:30.771Z,99774.28
2022-11-23T06:26:57.757Z,99775.88
2022-11-23T06:29:26.403Z,99784.34
2022-11-23T06:31:54.367Z,99778.25
2022-11-23T06:34:21.428Z,99789.78
2022-11-23T06:36:48.356Z,99787.53
2022-11-23T06:39:17.472Z,99780.78
2022-11-23T06:41:44.445Z,99784.25
2022-11-23T06:44:11.407Z,99786.66
2022-11-23T06:46:39.659Z,99785.44
2022-11-23T06:49:06.936Z,99778.94
2022-11-23T06:51:33.931Z,99781.34
2022-11-23T06:54:00.914Z,99793.94
2022-11-23T06:56:27.926Z,99791.31
2022-11-23T06:58:54.931Z,99789.50
2022-11-23T07:01:22.125Z,99785.25
2022-11-23T07:03:50.603Z,99791.53
2022-11-23T07:06:18.005Z,99798.03
2022-11-23T07:08:45.583Z,99801.69
2022-11-23T07:11:12.877Z,99798.47
2022-11-23T07:13:40.145Z,99802.97
2022-11-23T07:16:07.924Z,99811.06
2022-11-23T07:18:34.970Z,99808.25
2022-11-23T07:21:03.533Z,99807.44
2022-11-23T07:23:30.566Z,99805.44
2022-11-23T07:25:57.598Z,99807.91
2022-11-23T07:28:24.609Z,99805.09
2022-11-23T07:30:54.404Z,99809.16
2022-11-23T07:33:21.383Z,99820.34
2022-11-23T07:35:48.528Z,99818.75
2022-11-23T07:38:17.031Z,99822.59
2022-11-23T07:40:44.157Z,99827.06
2022-11-23T07:43:11.184Z,99829.94
2022-11-23T07:45:39.425Z,99839.44
2022-11-23T07:48:08.951Z,99840.03
2022-11-23T07:50:42.997Z,99841.69
2022-11-23T07:53:10.742Z,99844.31
2022-11-23T07:55:39.156Z,99842.69
2022-11-23T07:58:06.462Z,99844.91
2022-11-23T08:00:33.526Z,99847.97
2022-11-23T08:05:48.587Z,99843.25
2022-11-23T08:08:16.343Z,99846.66
2022-11-23T08:10:49.902Z,99845.81
2022-11-23T08:13:20.242Z,99850.50
2022-11-23T08:15:53.297Z,99847.63
2022-11-23T08:18:20.731Z,99851.88
2022-11-23T08:20:48.327Z,99851.88
2022-11-23T08:23:18.578Z,99853.13
2022-11-23T08:25:47.588Z,99863.88
2022-11-23T08:28:15.562Z,99855.38
2022-11-23T08:30:42.632Z,99860.66
2022-11-23T08:33:10.359Z,99859.81
2022-11-23T08:35:39.804Z,99858.00
2022-11-23T08:38:09.170Z,99858.19
2022-11-23T08:40:37.067Z,99867.53
2022-11-23T08:43:06.142Z,99858.97
2022-11-23T08:45:33.641Z,99863.84
2022-11-23T08:48:01.497Z,99861.38
2022-11-23T08:50:29.419Z,99865.84
2022-11-23T08:52:56.820Z,99865.44
2022-11-23T08:55:24.122Z,99868.06
2022-11-23T08:57:54.313Z,99864.00
2022-11-23T09:00:23.040Z,99871.09
2022-11-23T09:02:50.355Z,99864.16
2022-11-23T09:05:17.607Z,99878.41
2022-11-23T09:07:45.026Z,99873.31
2022-11-23T09:10:17.911Z,99873.72
2022-11-23T09:12:46.415Z,99864.59
2022-11-23T09:15:13.563Z,99879.25
2022-11-23T09:17:42.776Z,99879.69
2022-11-23T09:20:11.393Z,99882.50
2022-11-23T09:22:39.114Z,99890.63
2022-11-23T09:25:08.669Z,99892.63
2022-11-23T09:27:36.275Z,99884.69
2022-11-23T09:30:04.893Z,99884.28
2022-11-23T09:32:33.048Z,99879.59
2022-11-23T09:35:01.896Z,99883.63
2022-11-23T09:37:29.388Z,99888.91
2022-11-23T09:39:56.568Z,99895.16
2022-11-23T09:43:08.144Z,99895.44
2022-11-23T09:45:46.957Z,99894.56
2022-11-23T09:48:48.847Z,99896.56
2022-11-23T09:51:20.860Z,99899.38
2022-11-23T09:53:55.084Z,99895.75
2022-11-23T09:56:30.281Z,99890.81
2022-11-23T09:59:01.185Z,99882.06
2022-11-23T10:01:30.504Z,99897.22
2022-11-23T10:03:58.904Z,99895.50
2022-11-23T10:06:31.220Z,99897.00
2022-11-23T10:09:18.141Z,99884.50
2022-11-23T10:12:14.245Z,99892.44
2022-11-23T10:15:01.644Z,99893.88
2022-11-23T10:17:50.915Z,99901.56
2022-11-23T10:20:37.359Z,99898.16
2022-11-23T10:23:17.443Z,99894.78
2022-11-23T10:25:50.219Z,99906.28
2022-11-23T10:28:21.052Z,99898.25
2022-11-23T10:31:01.157Z,99898.84
2022-11-23T10:33:34.466Z,99899.59
2022-11-23T10:36:01.889Z,99899.16
2022-11-23T10:38:34.159Z,99898.72
2022-11-23T10:41:06.887Z,99895.06
2022-11-23T10:43:45.244Z,99894.16
2022-11-23T10:46:32.379Z,99896.38
2022-11-23T10:49:18.865Z,99901.28
2022-11-23T10:51:53.472Z,99894.91
2022-11-23T10:54:27.635Z,99905.25
2022-11-23T10:56:56.593Z,99902.91
2022-11-23T10:59:36.850Z,99899.97
2022-11-23T11:02:18.142Z,99895.78
2022-11-23T11:04:46.814Z,99889.44
2022-11-23T11:07:28.582Z,99886.38
2022-11-23T11:09:59.673Z,99880.69
2022-11-23T11:12:29.404Z,99884.31
2022-11-23T11:15:11.264Z,99887.53
2022-11-23T11:17:41.997Z,99883.63
2022-11-23T11:20:32.877Z,99886.63
2022-11-23T11:23:04.055Z,99879.81
2022-11-23T11:25:37.975Z,99886.44
2022-11-23T11:28:25.318Z,99880.41
2022-11-23T11:31:11.075Z,99878.75
2022-11-23T11:33:50.925Z,99887.28
2022-11-23T11:36:18.802Z,99879.50
2022-11-23T11:39:15.387Z,99878.63
2022-11-23T11:41:44.680Z,99883.19
2022-11-23T11:44:20.913Z,99879.06
2022-11-23T11:46:58.015Z,99872.81
2022-11-23T11:49:31.286Z,99869.63
2022-11-23T11:52:08.113Z,99871.91
2022-11-23T11:54:44.233Z,99869.91
2022-11-23T11:57:21.032Z,99868.34
2022-11-23T11:59:52.989Z,99873.78
2022-11-23T12:02:26.759Z,99876.31
2022-11-23T12:05:07.667Z,99873.34
2022-11-23T12:07:42.509Z,99858.25
2022-11-23T12:10:18.628Z,99860.66
2022-11-23T12:12:50.059Z,99862.53
2022-11-23T12:15:47.919Z,99863.06
2022-11-23T12:18:32.934Z,99864.09
2022-11-23T12:21:05.737Z,99867.88
2022-11-23T12:23:59.173Z,99868.09
2022-11-23T12:26:42.419Z,99860.84
2022-11-23T12:29:46.066Z,99861.50
2022-11-23T12:32:30.859Z,99862.25
2022-11-23T12:35:24.582Z,99858.31
2022-11-23T12:38:12.169Z,99861.38
2022-11-23T12:40:58.746Z,99863.63
2022-11-23T12:43:37.487Z,99864.75
2022-11-23T12:46:14.899Z,99851.66
2022-11-23T12:49:01.281Z,99854.91
2022-11-23T12:51:41.029Z,99851.91
2022-11-23T12:54:39.816Z,99859.31
2022-11-23T12:57:18.353Z,99853.72
2022-11-23T12:59:50.809Z,99857.38
2022-11-23T13:03:02.249Z,99850.66
2022-11-23T13:06:24.796Z,99843.59
2022-11-23T13:09:34.122Z,99850.94
2022-11-23T13:12:25.643Z,99845.47
2022-11-23T13:15:10.680Z,99839.56
2022-11-23T13:17:53.283Z,99842.69
2022-11-23T13:20:42.164Z,99835.97
2022-11-23T13:23:10.251Z,99839.53
2022-11-23T13:25:37.819Z,99840.03
2022-11-23T13:28:29.220Z,99833.31
2022-11-23T13:31:26.347Z,99836.78
2022-11-23T13:33:58.332Z,99832.16
2022-11-23T13:37:11.705Z,99819.69
2022-11-23T13:40:20.953Z,99814.25
2022-11-23T13:42:50.184Z,99815.44
2022-11-23T13:45:33.861Z,99819.66
2022-11-23T13:48:48.839Z,99811.44
2022-11-23T13:51:09.614Z,99813.97
2022-11-23T13:53:41.057Z,99814.44
2022-11-23T13:56:27.434Z,99815.34
2022-11-23T13:58:56.621Z,99810.41
2022-11-23T14:01:59.375Z,99806.69
2022-11-23T14:04:28.330Z,99816.06
2022-11-23T14:07:02.236Z,99810.53
2022-11-23T14:09:36.915Z,99812.25
2022-11-23T14:12:17.097Z,99814.06
2022-11-23T14:15:01.076Z,99812.09
2022-11-23T14:18:14.392Z,99810.94
2022-11-23T14:21:07.567Z,99816.22
2022-11-23T14:24:21.158Z,99814.22
2022-11-23T14:27:30.893Z,99813.66
2022-11-23T14:30:28.906Z,99810.97
2022-11-23T14:33:27.182Z,99820.97
2022-11-23T14:36:10.000Z,99826.72
2022-11-23T14:39:32.884Z,99841.69
2022-11-23T14:42:10.285Z,99841.47
2022-11-23T14:44:42.393Z,99839.25
2022-11-23T14:47:12.107Z,99840.38
2022-11-23T14:49:50.805Z,99845.78
2022-11-23T14:52:22.837Z,99845.19
2022-11-23T14:54:55.118Z,99844.81
2022-11-23T14:57:39.436Z,99847.25
2022-11-23T15:00:24.187Z,99848.72
2022-11-23T15:02:53.386Z,99852.44
2022-11-23T15:05:28.331Z,99847.19
2022-11-23T15:08:02.344Z,99843.63
2022-11-23T15:10:42.584Z,99846.56
2022-11-23T15:13:21.853Z,99841.50
2022-11-23T15:15:52.427Z,99852.28
2022-11-23T15:18:34.545Z,99851.13
2022-11-23T15:21:07.849Z,99858.03
2022-11-23T15:23:39.893Z,99862.53
2022-11-23T15:26:34.740Z,99849.94
2022-11-23T15:29:04.846Z,99853.84
2022-11-23T15:31:36.085Z,99849.22
2022-11-23T15:34:13.853Z,99843.97
2022-11-23T15:36:42.555Z,99840.97
2022-11-23T15:39:18.106Z,99839.63
2022-11-23T15:41:49.444Z,99832.78
2022-11-23T15:44:24.682Z,99823.13
2022-11-23T15:46:54.487Z,99823.88
2022-11-23T15:49:23.941Z,99820.03
2022-11-23T15:51:53.212Z,99811.50
2022-11-23T15:54:25.589Z,99816.78
2022-11-23T15:56:58.474Z,99823.31
2022-11-23T15:59:34.958Z,99831.91
2022-11-23T16:02:07.115Z,99841.75
2022-11-23T16:04:38.818Z,99838.34
2022-11-23T16:07:19.001Z,99845.53
2022-11-23T16:09:51.892Z,99837.00
2022-11-23T16:12:27.945Z,99837.88
2022-11-23T16:14:57.386Z,99842.19
2022-11-23T16:17:26.661Z,99844.44
2022-11-23T16:19:55.961Z,99838.53
2022-11-23T16:22:29.603Z,99843.63
2022-11-23T16:25:07.881Z,99827.38
2022-11-23T16:27:37.155Z,99843.06
2022-11-23T16:30:05.875Z,99839.63
2022-11-23T16:32:32.891Z,99851.00
2022-11-23T16:35:16.365Z,99853.06
2022-11-23T16:37:43.567Z,99852.63
2022-11-23T16:40:12.051Z,99876.03
2022-11-23T16:42:40.575Z,99868.91
2022-11-23T16:45:09.742Z,99877.06
2022-11-23T16:47:53.086Z,99882.38
2022-11-23T16:50:20.142Z,99899.84
2022-11-23T16:52:47.445Z,99894.97
2022-11-23T16:55:14.491Z,99914.53
2022-11-23T16:57:44.085Z,99913.28
2022-11-23T17:00:16.888Z,99910.50
2022-11-23T17:02:44.060Z,99915.75
2022-11-23T17:05:15.686Z,99917.81
2022-11-23T17:07:43.195Z,99927.38
2022-11-23T17:10:10.615Z,99925.97
2022-11-23T17:12:39.294Z,99929.16
2022-11-23T17:15:12.588Z,99936.25
2022-11-23T17:17:39.589Z,99937.50
2022-11-23T17:20:12.018Z,99939.75
2022-11-23T17:22:39.148Z,99941.00
2022-11-23T17:25:11.677Z,99953.00
2022-11-23T17:27:43.600Z,99953.84
2022-11-23T17:30:15.557Z,99945.31
2022-11-23T17:32:42.804Z,99955.28
2022-11-23T17:35:10.014Z,99951.47
2022-11-23T17:37:37.363Z,99950.75
2022-11-23T17:40:12.902Z,99955.63
2022-11-23T17:42:39.839Z,99952.03
2022-11-23T17:45:07.912Z,99950.38
2022-11-23T17:47:38.033Z,99953.56
2022-11-23T17:50:07.295Z,99954.22
2022-11-23T17:52:34.242Z,99967.59
2022-11-23T17:55:01.193Z,99967.63
2022-11-23T17:57:28.195Z,99971.91
2022-11-23T17:59:58.225Z,99973.75
2022-11-23T18:02:27.955Z,99974.47
2022-11-23T18:04:56.280Z,99978.59
2022-11-23T18:07:23.270Z,99981.66
2022-11-23T18:09:50.375Z,99984.13
2022-11-23T18:12:17.671Z,99972.75
2022-11-23T18:14:44.579Z,99983.34
2022-11-23T18:17:11.578Z,99981.31
2022-11-23T18:19:38.615Z,99986.19
2022-11-23T18:22:06.990Z,99981.31
2022-11-23T18:24:33.942Z,99980.13
2022-11-23T18:27:00.883Z,99991.50
2022-11-23T18:29:27.949Z,99992.75
2022-11-23T18:31:54.867Z,99986.63
2022-11-23T18:34:21.791Z,99991.91
2022-11-23T18:36:48.720Z,99995.16
2022-11-23T18:39:17.001Z,99994.94
2022-11-23T18:41:43.932Z,99994.75
2022-11-23T18:44:10.867Z,100001.06
2022-11-23T18:46:37.901Z,100000.44
2022-11-23T18:49:05.140Z,99995.56
2022-11-23T18:51:32.170Z,100006.31
2022-11-23T18:53:59.240Z,100003.25
2022-11-23T18:56:27.536Z,100010.56
2022-11-23T18:58:54.451Z,100010.97
2022-11-23T19:01:23.757Z,100016.66
2022-11-23T19:03:53.363Z,100014.81
2022-11-23T19:06:22.859Z,100021.13
2022-11-23T19:08:57.319Z,100023.97
2022-11-23T19:11:28.479Z,100025.19
2022-11-23T19:13:58.183Z,100024.56
2022-11-23T19:16:29.885Z,100023.19
2022-11-23T19:18:59.184Z,100030.06
2022-11-23T19:21:28.530Z,100021.34
2022-11-23T19:23:57.727Z,100023.19
2022-11-23T19:26:27.689Z,100028.63
2022-11-23T19:28:56.056Z,100024.38
2022-11-23T19:31:26.461Z,100043.47
2022-11-23T19:33:58.399Z,100019.91
2022-11-23T19:36:25.968Z,100023.97
2022-11-23T19:38:55.152Z,100024.41
2022-11-23T19:41:28.188Z,100028.44
2022-11-23T19:44:00.859Z,100032.09
2022-11-23T19:46:29.180Z,100035.34
2022-11-23T19:48:57.308Z,100028.84
2022-11-23T19:51:26.233Z,100036.56
2022-11-23T19:53:57.497Z,100039.41
2022-11-23T19:56:27.459Z,100046.31
2022-11-23T19:58:56.779Z,100036.56
2022-11-23T20:01:28.071Z,100038.78
2022-11-23T20:03:59.669Z,100042.66
2022-11-23T20:06:30.947Z,100051.59
2022-11-23T20:09:00.513Z,100048.72
2022-11-23T20:11:30.292Z,100045.50
2022-11-23T20:13:58.718Z,100050.75
2022-11-23T20:16:31.110Z,100049.94
2022-11-23T20:19:01.291Z,100051.59
2022-11-23T20:21:30.115Z,100056.78
2022-11-23T20:24:04.486Z,100057.63
2022-11-23T20:26:33.977Z,100065.75
2022-11-23T20:29:01.082Z,100056.63
2022-11-23T20:31:32.378Z,100068.22
2022-11-23T20:34:00.251Z,100066.81
2022-11-23T20:36:29.888Z,100074.31
2022-11-23T20:39:00.514Z,100073.13
2022-11-23T20:41:30.936Z,100078.78
2022-11-23T20:44:00.571Z,100073.91
2022-11-23T20:47:00.524Z,100077.97
2022-11-23T20:49:18.623Z,100077.19
2022-11-23T20:51:45.630Z,100083.28
2022-11-23T20:54:12.770Z,100085.50
2022-11-23T20:56:39.739Z,100085.88
2022-11-23T20:59:06.951Z,100084.69
2022-11-23T21:01:35.273Z,100090.97
2022-11-23T21:04:02.498Z,100093.81
2022-11-23T21:06:31.448Z,100098.28
2022-11-23T21:09:01.739Z,100105.19
2022-11-23T21:11:48.174Z,100110.06
2022-11-23T21:14:18.606Z,100112.28
2022-11-23T21:16:52.958Z,100108.81
2022-11-23T21:19:22.500Z,100116.13
2022-11-23T21:21:49.888Z,100110.44
2022-11-23T21:24:17.215Z,100114.91
2022-11-23T21:26:44.631Z,100112.25
2022-11-23T21:29:11.654Z,100113.69
2022-11-23T21:31:42.200Z,100116.50
2022-11-23T21:34:18.293Z,100121.19
2022-11-23T21:36:45.850Z,100118.53
2022-11-23T21:39:14.090Z,100122.81
2022-11-23T21:41:41.377Z,100118.16
2022-11-23T21:44:10.381Z,100118.53
2022-11-23T21:46:39.829Z,100120.19
2022-11-23T21:49:07.733Z,100125.03
2022-11-23T21:51:37.737Z,100121.41
2022-11-23T21:54:07.413Z,100123.81
2022-11-23T21:56:34.462Z,100125.47
2022-11-23T21:59:01.916Z,100119.38
2022-11-23T22:01:31.602Z,100119.38
2022-11-23T22:04:02.395Z,100128.91
2022-11-23T22:06:30.384Z,100125.84
2022-11-23T22:09:02.164Z,100133.97
2022-11-23T22:11:31.886Z,100130.13
2022-11-23T22:14:01.459Z,100131.97
2022-11-23T22:16:30.983Z,100136.44
2022-11-23T22:18:59.044Z,100138.47
2022-11-23T22:21:31.896Z,100141.94
2022-11-23T22:24:01.275Z,100138.47
2022-11-23T22:26:28.597Z,100142.72
2022-11-23T22:28:56.811Z,100139.47
2022-11-23T22:31:25.511Z,100146.19
2022-11-23T22:33:53.379Z,100141.72
2022-11-23T22:36:23.123Z,100146.19
2022-11-23T22:39:01.077Z,100147.00
2022-11-23T22:41:39.120Z,100144.97
2022-11-23T22:44:08.969Z,100145.56
2022-11-23T22:46:37.214Z,100144.97
2022-11-23T22:49:04.901Z,100148.22
2022-11-23T22:51:32.291Z,100153.09
2022-11-23T22:54:01.032Z,100158.16
2022-11-23T22:56:30.987Z,100161.81
2022-11-23T22:58:58.809Z,100155.91
2022-11-23T23:01:28.383Z,100160.19
2022-11-23T23:03:57.999Z,100166.09
2022-11-23T23:06:28.273Z,100170.16
2022-11-23T23:08:57.934Z,100180.50
2022-11-23T23:11:27.972Z,100180.69
2022-11-23T23:13:57.391Z,100181.69
2022-11-23T23:16:25.762Z,100185.16
2022-11-23T23:18:56.748Z,100192.66
2022-11-23T23:21:26.210Z,100195.72
2022-11-23T23:23:56.015Z,100198.94
2022-11-23T23:26:25.053Z,100201.75
2022-11-23T23:28:56.402Z,100202.59
2022-11-23T23:31:24.082Z,100207.63
2022-11-23T23:33:53.409Z,100213.50
2022-11-23T23:36:22.932Z,100219.59
2022-11-23T23:38:50.937Z,100220.97
2022-11-23T23:41:18.185Z,100219.34
2022-11-23T23:43:45.220Z,100221.41
2022-11-23T23:46:13.776Z,100220.81
2022-11-23T23:48:41.578Z,100215.94
2022-11-23T23:51:12.495Z,100221.63
2022-11-23T23:53:40.575Z,100224.44
2022-11-23T23:56:12.935Z,100221.56
2022-11-23T23:58:39.973Z,100215.91
